sensor_id;sensor_type;location;lat;lon;timestamp;P1;durP1;ratioP1;P2;durP2;ratioP2
22186;SDS011;11259;52.146;12.844;2022-08-21T00:00:37;8.23;;;7.47;;
22186;SDS011;11259;52.146;12.844;2022-08-21T00:03:04;8.85;;;8.05;;
22186;SDS011;11259;52.146;12.844;2022-08-21T00:05:31;8.82;;;7.90;;
22186;SDS011;11259;52.146;12.844;2022-08-21T00:07:58;8.65;;;7.82;;
22186;SDS011;11259;52.146;12.844;2022-08-21T00:10:23;8.70;;;7.30;;
22186;SDS011;11259;52.146;12.844;2022-08-21T00:12:49;11.90;;;7.55;;
22186;SDS011;11259;52.146;12.844;2022-08-21T00:15:18;7.45;;;6.72;;
22186;SDS011;11259;52.146;12.844;2022-08-21T00:17:45;10.82;;;6.63;;
22186;SDS011;11259;52.146;12.844;2022-08-21T00:20:11;7.35;;;6.65;;
22186;SDS011;11259;52.146;12.844;2022-08-21T00:22:39;7.90;;;7.18;;
22186;SDS011;11259;52.146;12.844;2022-08-21T00:25:05;7.38;;;6.70;;
22186;SDS011;11259;52.146;12.844;2022-08-21T00:27:31;7.75;;;6.93;;
22186;SDS011;11259;52.146;12.844;2022-08-21T00:29:56;8.82;;;7.40;;
22186;SDS011;11259;52.146;12.844;2022-08-21T00:32:24;7.50;;;6.80;;
22186;SDS011;11259;52.146;12.844;2022-08-21T00:34:50;10.05;;;6.40;;
22186;SDS011;11259;52.146;12.844;2022-08-21T00:37:15;9.65;;;7.05;;
22186;SDS011;11259;52.146;12.844;2022-08-21T00:39:41;9.45;;;6.90;;
22186;SDS011;11259;52.146;12.844;2022-08-21T00:42:06;7.60;;;6.35;;
22186;SDS011;11259;52.146;12.844;2022-08-21T00:44:32;8.45;;;6.50;;
22186;SDS011;11259;52.146;12.844;2022-08-21T00:46:57;11.38;;;6.68;;
22186;SDS011;11259;52.146;12.844;2022-08-21T00:49:24;7.43;;;6.65;;
22186;SDS011;11259;52.146;12.844;2022-08-21T00:51:50;7.10;;;6.20;;
22186;SDS011;11259;52.146;12.844;2022-08-21T00:54:17;11.65;;;6.60;;
22186;SDS011;11259;52.146;12.844;2022-08-21T00:56:44;9.73;;;6.30;;
22186;SDS011;11259;52.146;12.844;2022-08-21T00:59:10;6.97;;;6.30;;
22186;SDS011;11259;52.146;12.844;2022-08-21T01:01:36;8.38;;;5.68;;
22186;SDS011;11259;52.146;12.844;2022-08-21T01:04:01;10.20;;;5.63;;
22186;SDS011;11259;52.146;12.844;2022-08-21T01:06:28;7.80;;;5.30;;
22186;SDS011;11259;52.146;12.844;2022-08-21T01:08:54;6.45;;;5.38;;
22186;SDS011;11259;52.146;12.844;2022-08-21T01:11:19;6.18;;;5.22;;
22186;SDS011;11259;52.146;12.844;2022-08-21T01:13:45;6.35;;;5.60;;
22186;SDS011;11259;52.146;12.844;2022-08-21T01:16:11;7.13;;;5.10;;
22186;SDS011;11259;52.146;12.844;2022-08-21T01:18:38;7.15;;;5.00;;
22186;SDS011;11259;52.146;12.844;2022-08-21T01:21:07;7.28;;;4.72;;
22186;SDS011;11259;52.146;12.844;2022-08-21T01:23:33;5.75;;;4.55;;
22186;SDS011;11259;52.146;12.844;2022-08-21T01:25:59;7.10;;;4.70;;
22186;SDS011;11259;52.146;12.844;2022-08-21T01:28:24;4.57;;;3.92;;
22186;SDS011;11259;52.146;12.844;2022-08-21T01:30:50;5.72;;;4.00;;
22186;SDS011;11259;52.146;12.844;2022-08-21T01:33:16;8.25;;;4.50;;
22186;SDS011;11259;52.146;12.844;2022-08-21T01:35:42;4.57;;;3.50;;
22186;SDS011;11259;52.146;12.844;2022-08-21T01:38:09;9.48;;;4.13;;
22186;SDS011;11259;52.146;12.844;2022-08-21T01:40:34;6.32;;;3.65;;
22186;SDS011;11259;52.146;12.844;2022-08-21T01:42:59;5.25;;;3.80;;
22186;SDS011;11259;52.146;12.844;2022-08-21T01:45:25;5.78;;;3.90;;
22186;SDS011;11259;52.146;12.844;2022-08-21T01:47:50;6.00;;;3.90;;
22186;SDS011;11259;52.146;12.844;2022-08-21T01:50:16;5.97;;;4.05;;
22186;SDS011;11259;52.146;12.844;2022-08-21T01:52:43;6.60;;;3.78;;
22186;SDS011;11259;52.146;12.844;2022-08-21T01:55:10;6.07;;;3.67;;
22186;SDS011;11259;52.146;12.844;2022-08-21T01:57:36;8.07;;;3.97;;
22186;SDS011;11259;52.146;12.844;2022-08-21T02:00:03;5.28;;;4.10;;
22186;SDS011;11259;52.146;12.844;2022-08-21T02:02:29;7.28;;;3.90;;
22186;SDS011;11259;52.146;12.844;2022-08-21T02:04:54;8.38;;;3.55;;
22186;SDS011;11259;52.146;12.844;2022-08-21T02:07:19;5.82;;;3.50;;
22186;SDS011;11259;52.146;12.844;2022-08-21T02:09:45;7.90;;;3.47;;
22186;SDS011;11259;52.146;12.844;2022-08-21T02:12:11;5.35;;;3.60;;
22186;SDS011;11259;52.146;12.844;2022-08-21T02:14:37;10.02;;;3.75;;
22186;SDS011;11259;52.146;12.844;2022-08-21T02:17:02;6.35;;;3.58;;
22186;SDS011;11259;52.146;12.844;2022-08-21T02:19:28;10.07;;;3.70;;
22186;SDS011;11259;52.146;12.844;2022-08-21T02:21:54;7.32;;;3.88;;
22186;SDS011;11259;52.146;12.844;2022-08-21T02:24:19;6.88;;;3.58;;
22186;SDS011;11259;52.146;12.844;2022-08-21T02:26:44;8.70;;;3.90;;
22186;SDS011;11259;52.146;12.844;2022-08-21T02:29:11;8.75;;;4.07;;
22186;SDS011;11259;52.146;12.844;2022-08-21T02:31:36;6.47;;;3.70;;
22186;SDS011;11259;52.146;12.844;2022-08-21T02:34:02;4.38;;;3.42;;
22186;SDS011;11259;52.146;12.844;2022-08-21T02:36:27;8.77;;;3.65;;
22186;SDS011;11259;52.146;12.844;2022-08-21T02:38:53;8.15;;;3.75;;
22186;SDS011;11259;52.146;12.844;2022-08-21T02:41:19;4.93;;;3.45;;
22186;SDS011;11259;52.146;12.844;2022-08-21T02:43:45;6.05;;;3.65;;
22186;SDS011;11259;52.146;12.844;2022-08-21T02:46:13;8.02;;;3.45;;
22186;SDS011;11259;52.146;12.844;2022-08-21T02:48:40;7.07;;;3.40;;
22186;SDS011;11259;52.146;12.844;2022-08-21T02:51:07;9.43;;;3.72;;
22186;SDS011;11259;52.146;12.844;2022-08-21T02:53:34;7.70;;;3.60;;
22186;SDS011;11259;52.146;12.844;2022-08-21T02:56:01;6.95;;;3.60;;
22186;SDS011;11259;52.146;12.844;2022-08-21T02:58:29;6.95;;;3.70;;
22186;SDS011;11259;52.146;12.844;2022-08-21T03:00:57;6.20;;;3.60;;
22186;SDS011;11259;52.146;12.844;2022-08-21T03:03:24;7.15;;;3.47;;
22186;SDS011;11259;52.146;12.844;2022-08-21T03:05:50;8.73;;;3.50;;
22186;SDS011;11259;52.146;12.844;2022-08-21T03:08:15;9.23;;;4.63;;
22186;SDS011;11259;52.146;12.844;2022-08-21T03:10:42;6.30;;;3.95;;
22186;SDS011;11259;52.146;12.844;2022-08-21T03:13:09;6.47;;;3.55;;
22186;SDS011;11259;52.146;12.844;2022-08-21T03:15:35;7.25;;;3.60;;
22186;SDS011;11259;52.146;12.844;2022-08-21T03:18:01;5.30;;;3.20;;
22186;SDS011;11259;52.146;12.844;2022-08-21T03:20:29;8.43;;;3.53;;
22186;SDS011;11259;52.146;12.844;2022-08-21T03:22:54;7.25;;;3.30;;
22186;SDS011;11259;52.146;12.844;2022-08-21T03:25:20;9.52;;;3.22;;
22186;SDS011;11259;52.146;12.844;2022-08-21T03:27:46;8.43;;;3.45;;
22186;SDS011;11259;52.146;12.844;2022-08-21T03:30:12;8.15;;;3.30;;
22186;SDS011;11259;52.146;12.844;2022-08-21T03:32:37;6.22;;;3.10;;
22186;SDS011;11259;52.146;12.844;2022-08-21T03:35:03;7.10;;;3.28;;
22186;SDS011;11259;52.146;12.844;2022-08-21T03:37:30;4.47;;;3.55;;
22186;SDS011;11259;52.146;12.844;2022-08-21T03:39:56;5.22;;;2.90;;
22186;SDS011;11259;52.146;12.844;2022-08-21T03:42:21;9.05;;;3.67;;
22186;SDS011;11259;52.146;12.844;2022-08-21T03:44:47;4.00;;;2.97;;
22186;SDS011;11259;52.146;12.844;2022-08-21T03:47:12;8.27;;;3.33;;
22186;SDS011;11259;52.146;12.844;2022-08-21T03:49:37;5.78;;;3.25;;
22186;SDS011;11259;52.146;12.844;2022-08-21T03:52:03;5.82;;;3.42;;
22186;SDS011;11259;52.146;12.844;2022-08-21T03:54:30;6.38;;;3.70;;
22186;SDS011;11259;52.146;12.844;2022-08-21T03:56:56;6.07;;;3.47;;
22186;SDS011;11259;52.146;12.844;2022-08-21T03:59:21;5.22;;;3.58;;
22186;SDS011;11259;52.146;12.844;2022-08-21T04:01:53;7.70;;;3.35;;
22186;SDS011;11259;52.146;12.844;2022-08-21T04:04:19;6.25;;;3.70;;
22186;SDS011;11259;52.146;12.844;2022-08-21T04:06:44;8.52;;;3.88;;
22186;SDS011;11259;52.146;12.844;2022-08-21T04:09:09;9.43;;;3.72;;
22186;SDS011;11259;52.146;12.844;2022-08-21T04:11:36;7.90;;;3.28;;
22186;SDS011;11259;52.146;12.844;2022-08-21T04:14:02;5.80;;;3.42;;
22186;SDS011;11259;52.146;12.844;2022-08-21T04:16:27;5.55;;;3.42;;
22186;SDS011;11259;52.146;12.844;2022-08-21T04:18:52;6.10;;;3.42;;
22186;SDS011;11259;52.146;12.844;2022-08-21T04:21:18;7.28;;;3.67;;
22186;SDS011;11259;52.146;12.844;2022-08-21T04:23:43;7.47;;;3.83;;
22186;SDS011;11259;52.146;12.844;2022-08-21T04:26:08;8.20;;;3.30;;
22186;SDS011;11259;52.146;12.844;2022-08-21T04:28:35;7.18;;;3.20;;
22186;SDS011;11259;52.146;12.844;2022-08-21T04:31:00;4.82;;;3.20;;
22186;SDS011;11259;52.146;12.844;2022-08-21T04:33:26;5.20;;;3.80;;
22186;SDS011;11259;52.146;12.844;2022-08-21T04:35:51;7.20;;;3.33;;
22186;SDS011;11259;52.146;12.844;2022-08-21T04:38:16;9.20;;;3.25;;
22186;SDS011;11259;52.146;12.844;2022-08-21T04:40:42;8.13;;;3.50;;
22186;SDS011;11259;52.146;12.844;2022-08-21T04:43:08;5.93;;;3.22;;
22186;SDS011;11259;52.146;12.844;2022-08-21T04:45:37;10.77;;;3.45;;
22186;SDS011;11259;52.146;12.844;2022-08-21T04:48:05;6.60;;;3.40;;
22186;SDS011;11259;52.146;12.844;2022-08-21T04:50:35;10.27;;;3.58;;
22186;SDS011;11259;52.146;12.844;2022-08-21T04:53:01;6.05;;;3.55;;
22186;SDS011;11259;52.146;12.844;2022-08-21T04:55:27;6.20;;;3.05;;
22186;SDS011;11259;52.146;12.844;2022-08-21T04:57:53;5.15;;;3.15;;
22186;SDS011;11259;52.146;12.844;2022-08-21T05:00:19;5.85;;;3.35;;
22186;SDS011;11259;52.146;12.844;2022-08-21T05:02:46;8.35;;;3.13;;
22186;SDS011;11259;52.146;12.844;2022-08-21T05:05:12;7.07;;;3.60;;
22186;SDS011;11259;52.146;12.844;2022-08-21T05:07:37;8.13;;;3.40;;
22186;SDS011;11259;52.146;12.844;2022-08-21T05:10:03;7.60;;;3.20;;
22186;SDS011;11259;52.146;12.844;2022-08-21T05:12:30;6.30;;;3.40;;
22186;SDS011;11259;52.146;12.844;2022-08-21T05:14:56;5.78;;;3.50;;
22186;SDS011;11259;52.146;12.844;2022-08-21T05:17:21;5.35;;;2.95;;
22186;SDS011;11259;52.146;12.844;2022-08-21T05:19:48;7.25;;;3.17;;
22186;SDS011;11259;52.146;12.844;2022-08-21T05:22:18;7.47;;;3.55;;
22186;SDS011;11259;52.146;12.844;2022-08-21T05:24:44;4.78;;;3.00;;
22186;SDS011;11259;52.146;12.844;2022-08-21T05:27:09;6.45;;;3.25;;
22186;SDS011;11259;52.146;12.844;2022-08-21T05:29:35;6.32;;;3.05;;
22186;SDS011;11259;52.146;12.844;2022-08-21T05:32:00;8.52;;;3.13;;
22186;SDS011;11259;52.146;12.844;2022-08-21T05:34:26;5.53;;;2.95;;
22186;SDS011;11259;52.146;12.844;2022-08-21T05:36:52;9.07;;;3.15;;
22186;SDS011;11259;52.146;12.844;2022-08-21T05:39:18;9.15;;;3.50;;
22186;SDS011;11259;52.146;12.844;2022-08-21T05:41:43;6.68;;;3.20;;
22186;SDS011;11259;52.146;12.844;2022-08-21T05:44:08;5.45;;;3.10;;
22186;SDS011;11259;52.146;12.844;2022-08-21T05:46:34;7.85;;;3.40;;
22186;SDS011;11259;52.146;12.844;2022-08-21T05:48:59;5.90;;;3.22;;
22186;SDS011;11259;52.146;12.844;2022-08-21T05:51:24;7.00;;;3.10;;
22186;SDS011;11259;52.146;12.844;2022-08-21T05:53:51;6.28;;;3.70;;
22186;SDS011;11259;52.146;12.844;2022-08-21T05:56:16;6.60;;;2.95;;
22186;SDS011;11259;52.146;12.844;2022-08-21T05:58:42;5.07;;;2.70;;
22186;SDS011;11259;52.146;12.844;2022-08-21T06:01:07;8.93;;;3.22;;
22186;SDS011;11259;52.146;12.844;2022-08-21T06:03:34;8.82;;;3.15;;
22186;SDS011;11259;52.146;12.844;2022-08-21T06:06:00;7.18;;;3.03;;
22186;SDS011;11259;52.146;12.844;2022-08-21T06:08:26;4.20;;;2.92;;
22186;SDS011;11259;52.146;12.844;2022-08-21T06:10:54;9.00;;;3.33;;
22186;SDS011;11259;52.146;12.844;2022-08-21T06:13:20;4.15;;;3.17;;
22186;SDS011;11259;52.146;12.844;2022-08-21T06:15:46;6.22;;;3.25;;
22186;SDS011;11259;52.146;12.844;2022-08-21T06:18:12;8.77;;;3.42;;
22186;SDS011;11259;52.146;12.844;2022-08-21T06:20:37;7.15;;;3.10;;
22186;SDS011;11259;52.146;12.844;2022-08-21T06:23:03;6.90;;;3.13;;
22186;SDS011;11259;52.146;12.844;2022-08-21T06:25:29;8.23;;;2.97;;
22186;SDS011;11259;52.146;12.844;2022-08-21T06:28:01;8.68;;;3.10;;
22186;SDS011;11259;52.146;12.844;2022-08-21T06:30:27;7.38;;;2.75;;
22186;SDS011;11259;52.146;12.844;2022-08-21T06:32:52;5.82;;;2.90;;
22186;SDS011;11259;52.146;12.844;2022-08-21T06:35:17;5.70;;;3.20;;
22186;SDS011;11259;52.146;12.844;2022-08-21T06:37:43;5.68;;;2.67;;
22186;SDS011;11259;52.146;12.844;2022-08-21T06:40:08;9.27;;;3.10;;
22186;SDS011;11259;52.146;12.844;2022-08-21T06:42:34;9.00;;;2.65;;
22186;SDS011;11259;52.146;12.844;2022-08-21T06:45:01;6.85;;;2.78;;
22186;SDS011;11259;52.146;12.844;2022-08-21T06:47:27;7.05;;;2.97;;
22186;SDS011;11259;52.146;12.844;2022-08-21T06:49:52;6.03;;;2.63;;
22186;SDS011;11259;52.146;12.844;2022-08-21T06:52:17;5.45;;;2.50;;
22186;SDS011;11259;52.146;12.844;2022-08-21T06:54:43;7.25;;;2.83;;
22186;SDS011;11259;52.146;12.844;2022-08-21T06:57:08;6.05;;;2.70;;
22186;SDS011;11259;52.146;12.844;2022-08-21T06:59:34;3.53;;;1.88;;
22186;SDS011;11259;52.146;12.844;2022-08-21T07:02:01;5.68;;;2.50;;
22186;SDS011;11259;52.146;12.844;2022-08-21T07:04:26;6.95;;;2.40;;
22186;SDS011;11259;52.146;12.844;2022-08-21T07:06:51;5.55;;;2.47;;
22186;SDS011;11259;52.146;12.844;2022-08-21T07:09:17;8.35;;;2.60;;
22186;SDS011;11259;52.146;12.844;2022-08-21T07:11:42;8.93;;;2.58;;
22186;SDS011;11259;52.146;12.844;2022-08-21T07:14:15;5.80;;;2.28;;
22186;SDS011;11259;52.146;12.844;2022-08-21T07:16:41;6.13;;;2.60;;
22186;SDS011;11259;52.146;12.844;2022-08-21T07:19:07;7.07;;;2.50;;
22186;SDS011;11259;52.146;12.844;2022-08-21T07:21:33;5.95;;;2.50;;
22186;SDS011;11259;52.146;12.844;2022-08-21T07:23:58;4.78;;;2.15;;
22186;SDS011;11259;52.146;12.844;2022-08-21T07:26:24;10.88;;;2.60;;
22186;SDS011;11259;52.146;12.844;2022-08-21T07:28:49;9.07;;;2.53;;
22186;SDS011;11259;52.146;12.844;2022-08-21T07:31:16;6.95;;;2.45;;
22186;SDS011;11259;52.146;12.844;2022-08-21T07:33:43;6.78;;;2.47;;
22186;SDS011;11259;52.146;12.844;2022-08-21T07:36:10;8.55;;;2.83;;
22186;SDS011;11259;52.146;12.844;2022-08-21T07:38:35;5.68;;;2.40;;
22186;SDS011;11259;52.146;12.844;2022-08-21T07:41:01;5.68;;;2.30;;
22186;SDS011;11259;52.146;12.844;2022-08-21T07:43:27;7.57;;;2.10;;
22186;SDS011;11259;52.146;12.844;2022-08-21T07:45:53;7.47;;;2.20;;
22186;SDS011;11259;52.146;12.844;2022-08-21T07:48:19;7.88;;;2.60;;
22186;SDS011;11259;52.146;12.844;2022-08-21T07:50:44;5.38;;;2.50;;
22186;SDS011;11259;52.146;12.844;2022-08-21T07:53:11;10.07;;;2.70;;
22186;SDS011;11259;52.146;12.844;2022-08-21T07:55:36;10.52;;;2.75;;
22186;SDS011;11259;52.146;12.844;2022-08-21T07:58:02;7.05;;;2.60;;
22186;SDS011;11259;52.146;12.844;2022-08-21T08:00:28;4.82;;;2.08;;
22186;SDS011;11259;52.146;12.844;2022-08-21T08:02:54;4.82;;;2.03;;
22186;SDS011;11259;52.146;12.844;2022-08-21T08:05:20;6.53;;;2.53;;
22186;SDS011;11259;52.146;12.844;2022-08-21T08:07:47;5.35;;;1.88;;
22186;SDS011;11259;52.146;12.844;2022-08-21T08:10:14;7.53;;;2.03;;
22186;SDS011;11259;52.146;12.844;2022-08-21T08:12:42;4.35;;;1.80;;
22186;SDS011;11259;52.146;12.844;2022-08-21T08:15:09;4.95;;;2.10;;
22186;SDS011;11259;52.146;12.844;2022-08-21T08:17:35;5.95;;;1.95;;
22186;SDS011;11259;52.146;12.844;2022-08-21T08:20:01;7.63;;;1.70;;
22186;SDS011;11259;52.146;12.844;2022-08-21T08:22:26;6.38;;;1.65;;
22186;SDS011;11259;52.146;12.844;2022-08-21T08:24:52;4.72;;;1.92;;
22186;SDS011;11259;52.146;12.844;2022-08-21T08:27:20;8.93;;;2.03;;
22186;SDS011;11259;52.146;12.844;2022-08-21T08:29:45;7.13;;;1.90;;
22186;SDS011;11259;52.146;12.844;2022-08-21T08:32:11;6.88;;;1.95;;
22186;SDS011;11259;52.146;12.844;2022-08-21T08:34:37;7.35;;;1.80;;
22186;SDS011;11259;52.146;12.844;2022-08-21T08:37:03;5.93;;;1.58;;
22186;SDS011;11259;52.146;12.844;2022-08-21T08:39:29;4.60;;;1.80;;
22186;SDS011;11259;52.146;12.844;2022-08-21T08:41:56;8.05;;;1.80;;
22186;SDS011;11259;52.146;12.844;2022-08-21T08:44:25;5.65;;;1.52;;
22186;SDS011;11259;52.146;12.844;2022-08-21T08:46:50;5.28;;;1.52;;
22186;SDS011;11259;52.146;12.844;2022-08-21T08:49:17;4.75;;;1.65;;
22186;SDS011;11259;52.146;12.844;2022-08-21T08:51:46;5.68;;;1.95;;
22186;SDS011;11259;52.146;12.844;2022-08-21T08:54:16;4.75;;;1.50;;
22186;SDS011;11259;52.146;12.844;2022-08-21T08:56:44;4.75;;;1.60;;
22186;SDS011;11259;52.146;12.844;2022-08-21T08:59:11;5.10;;;1.50;;
22186;SDS011;11259;52.146;12.844;2022-08-21T09:01:41;4.70;;;1.75;;
22186;SDS011;11259;52.146;12.844;2022-08-21T09:04:06;4.35;;;1.60;;
22186;SDS011;11259;52.146;12.844;2022-08-21T09:06:34;6.85;;;1.90;;
22186;SDS011;11259;52.146;12.844;2022-08-21T09:09:05;5.20;;;1.60;;
22186;SDS011;11259;52.146;12.844;2022-08-21T09:11:36;7.05;;;1.77;;
22186;SDS011;11259;52.146;12.844;2022-08-21T09:14:08;3.83;;;1.50;;
22186;SDS011;11259;52.146;12.844;2022-08-21T09:16:39;5.53;;;1.65;;
22186;SDS011;11259;52.146;12.844;2022-08-21T09:19:11;4.95;;;1.90;;
22186;SDS011;11259;52.146;12.844;2022-08-21T09:21:48;8.13;;;1.70;;
22186;SDS011;11259;52.146;12.844;2022-08-21T09:24:21;3.13;;;1.40;;
22186;SDS011;11259;52.146;12.844;2022-08-21T09:26:52;3.67;;;1.50;;
22186;SDS011;11259;52.146;12.844;2022-08-21T09:29:23;4.28;;;1.50;;
22186;SDS011;11259;52.146;12.844;2022-08-21T09:31:50;6.05;;;1.98;;
22186;SDS011;11259;52.146;12.844;2022-08-21T09:34:24;6.07;;;1.90;;
22186;SDS011;11259;52.146;12.844;2022-08-21T09:36:51;7.15;;;1.95;;
22186;SDS011;11259;52.146;12.844;2022-08-21T09:39:22;4.68;;;1.67;;
22186;SDS011;11259;52.146;12.844;2022-08-21T09:41:54;3.85;;;1.65;;
22186;SDS011;11259;52.146;12.844;2022-08-21T09:44:24;4.68;;;1.73;;
22186;SDS011;11259;52.146;12.844;2022-08-21T09:46:52;4.72;;;1.70;;
22186;SDS011;11259;52.146;12.844;2022-08-21T09:49:26;5.20;;;1.67;;
22186;SDS011;11259;52.146;12.844;2022-08-21T09:51:52;5.45;;;1.95;;
22186;SDS011;11259;52.146;12.844;2022-08-21T09:54:17;4.85;;;1.83;;
22186;SDS011;11259;52.146;12.844;2022-08-21T09:56:51;5.90;;;1.67;;
22186;SDS011;11259;52.146;12.844;2022-08-21T09:59:19;4.57;;;1.55;;
22186;SDS011;11259;52.146;12.844;2022-08-21T10:01:53;5.03;;;1.83;;
22186;SDS011;11259;52.146;12.844;2022-08-21T10:04:21;5.53;;;1.60;;
22186;SDS011;11259;52.146;12.844;2022-08-21T10:06:48;5.63;;;1.70;;
22186;SDS011;11259;52.146;12.844;2022-08-21T10:09:16;6.88;;;2.13;;
22186;SDS011;11259;52.146;12.844;2022-08-21T10:11:44;3.67;;;1.63;;
22186;SDS011;11259;52.146;12.844;2022-08-21T10:14:16;6.60;;;1.67;;
22186;SDS011;11259;52.146;12.844;2022-08-21T10:16:56;5.68;;;2.03;;
22186;SDS011;11259;52.146;12.844;2022-08-21T10:19:34;6.35;;;1.70;;
22186;SDS011;11259;52.146;12.844;2022-08-21T10:22:06;6.13;;;1.90;;
22186;SDS011;11259;52.146;12.844;2022-08-21T10:24:40;5.32;;;1.80;;
22186;SDS011;11259;52.146;12.844;2022-08-21T10:27:13;5.63;;;1.90;;
22186;SDS011;11259;52.146;12.844;2022-08-21T10:29:45;5.82;;;1.83;;
22186;SDS011;11259;52.146;12.844;2022-08-21T10:32:17;5.85;;;1.90;;
22186;SDS011;11259;52.146;12.844;2022-08-21T10:34:51;4.57;;;1.67;;
22186;SDS011;11259;52.146;12.844;2022-08-21T10:37:24;6.65;;;2.03;;
22186;SDS011;11259;52.146;12.844;2022-08-21T10:40:02;8.55;;;1.98;;
22186;SDS011;11259;52.146;12.844;2022-08-21T10:42:33;5.68;;;1.92;;
22186;SDS011;11259;52.146;12.844;2022-08-21T10:45:13;5.72;;;1.95;;
22186;SDS011;11259;52.146;12.844;2022-08-21T10:47:54;8.70;;;1.80;;
22186;SDS011;11259;52.146;12.844;2022-08-21T10:50:25;6.93;;;2.05;;
22186;SDS011;11259;52.146;12.844;2022-08-21T10:53:01;5.80;;;1.80;;
22186;SDS011;11259;52.146;12.844;2022-08-21T10:55:51;3.80;;;1.60;;
22186;SDS011;11259;52.146;12.844;2022-08-21T10:58:19;4.28;;;1.77;;
22186;SDS011;11259;52.146;12.844;2022-08-21T11:00:49;6.22;;;1.73;;
22186;SDS011;11259;52.146;12.844;2022-08-21T11:03:17;5.30;;;1.75;;
22186;SDS011;11259;52.146;12.844;2022-08-21T11:05:47;4.25;;;2.15;;
22186;SDS011;11259;52.146;12.844;2022-08-21T11:08:15;7.40;;;2.10;;
22186;SDS011;11259;52.146;12.844;2022-08-21T11:10:44;7.15;;;1.85;;
22186;SDS011;11259;52.146;12.844;2022-08-21T11:13:12;5.18;;;1.83;;
22186;SDS011;11259;52.146;12.844;2022-08-21T11:15:42;6.15;;;1.80;;
22186;SDS011;11259;52.146;12.844;2022-08-21T11:18:15;5.50;;;1.95;;
22186;SDS011;11259;52.146;12.844;2022-08-21T11:20:46;4.88;;;1.75;;
22186;SDS011;11259;52.146;12.844;2022-08-21T11:23:17;5.35;;;1.95;;
22186;SDS011;11259;52.146;12.844;2022-08-21T11:25:44;6.30;;;2.20;;
22186;SDS011;11259;52.146;12.844;2022-08-21T11:28:13;8.18;;;1.73;;
22186;SDS011;11259;52.146;12.844;2022-08-21T11:30:44;7.22;;;2.13;;
22186;SDS011;11259;52.146;12.844;2022-08-21T11:33:19;7.32;;;2.03;;
22186;SDS011;11259;52.146;12.844;2022-08-21T11:35:52;6.40;;;2.10;;
22186;SDS011;11259;52.146;12.844;2022-08-21T11:38:26;5.15;;;1.85;;
22186;SDS011;11259;52.146;12.844;2022-08-21T11:40:57;6.13;;;1.98;;
22186;SDS011;11259;52.146;12.844;2022-08-21T11:43:35;5.32;;;2.05;;
22186;SDS011;11259;52.146;12.844;2022-08-21T11:46:06;5.55;;;2.13;;
22186;SDS011;11259;52.146;12.844;2022-08-21T11:48:42;7.20;;;2.20;;
22186;SDS011;11259;52.146;12.844;2022-08-21T11:51:12;4.78;;;2.08;;
22186;SDS011;11259;52.146;12.844;2022-08-21T11:54:02;4.65;;;1.70;;
22186;SDS011;11259;52.146;12.844;2022-08-21T11:56:30;8.10;;;2.00;;
22186;SDS011;11259;52.146;12.844;2022-08-21T11:58:59;8.48;;;2.28;;
22186;SDS011;11259;52.146;12.844;2022-08-21T12:01:27;5.43;;;2.00;;
22186;SDS011;11259;52.146;12.844;2022-08-21T12:03:58;5.03;;;2.20;;
22186;SDS011;11259;52.146;12.844;2022-08-21T12:06:30;4.70;;;1.80;;
22186;SDS011;11259;52.146;12.844;2022-08-21T12:08:57;4.93;;;1.92;;
22186;SDS011;11259;52.146;12.844;2022-08-21T12:11:24;7.65;;;2.17;;
22186;SDS011;11259;52.146;12.844;2022-08-21T12:13:55;6.30;;;2.33;;
22186;SDS011;11259;52.146;12.844;2022-08-21T12:16:29;4.38;;;1.98;;
22186;SDS011;11259;52.146;12.844;2022-08-21T12:19:03;4.38;;;1.85;;
22186;SDS011;11259;52.146;12.844;2022-08-21T12:21:29;4.57;;;1.87;;
22186;SDS011;11259;52.146;12.844;2022-08-21T12:24:03;8.10;;;2.17;;
22186;SDS011;11259;52.146;12.844;2022-08-21T12:26:30;4.82;;;2.05;;
22186;SDS011;11259;52.146;12.844;2022-08-21T12:29:11;4.38;;;1.63;;
22186;SDS011;11259;52.146;12.844;2022-08-21T12:34:24;6.70;;;1.83;;
22186;SDS011;11259;52.146;12.844;2022-08-21T12:36:57;6.28;;;2.20;;
22186;SDS011;11259;52.146;12.844;2022-08-21T12:39:24;4.10;;;2.13;;
22186;SDS011;11259;52.146;12.844;2022-08-21T12:41:53;5.68;;;1.92;;
22186;SDS011;11259;52.146;12.844;2022-08-21T12:44:22;4.93;;;1.67;;
22186;SDS011;11259;52.146;12.844;2022-08-21T12:46:54;6.45;;;2.10;;
22186;SDS011;11259;52.146;12.844;2022-08-21T12:49:26;6.38;;;2.10;;
22186;SDS011;11259;52.146;12.844;2022-08-21T12:51:55;6.57;;;1.95;;
22186;SDS011;11259;52.146;12.844;2022-08-21T12:54:24;5.25;;;1.80;;
22186;SDS011;11259;52.146;12.844;2022-08-21T12:57:01;3.75;;;1.73;;
22186;SDS011;11259;52.146;12.844;2022-08-21T12:59:28;4.97;;;1.90;;
22186;SDS011;11259;52.146;12.844;2022-08-21T13:01:54;8.65;;;2.35;;
22186;SDS011;11259;52.146;12.844;2022-08-21T13:04:21;5.80;;;2.40;;
22186;SDS011;11259;52.146;12.844;2022-08-21T13:06:52;4.30;;;2.00;;
22186;SDS011;11259;52.146;12.844;2022-08-21T13:09:20;6.63;;;2.30;;
22186;SDS011;11259;52.146;12.844;2022-08-21T13:11:49;7.40;;;2.10;;
22186;SDS011;11259;52.146;12.844;2022-08-21T13:14:17;6.22;;;1.95;;
22186;SDS011;11259;52.146;12.844;2022-08-21T13:16:52;4.03;;;2.03;;
22186;SDS011;11259;52.146;12.844;2022-08-21T13:19:18;6.28;;;2.60;;
22186;SDS011;11259;52.146;12.844;2022-08-21T13:21:45;5.45;;;2.00;;
22186;SDS011;11259;52.146;12.844;2022-08-21T13:24:12;7.15;;;2.40;;
22186;SDS011;11259;52.146;12.844;2022-08-21T13:26:41;4.38;;;1.92;;
22186;SDS011;11259;52.146;12.844;2022-08-21T13:29:07;4.57;;;2.03;;
22186;SDS011;11259;52.146;12.844;2022-08-21T13:31:34;4.00;;;1.92;;
22186;SDS011;11259;52.146;12.844;2022-08-21T13:33:59;8.20;;;2.20;;
22186;SDS011;11259;52.146;12.844;2022-08-21T13:36:25;6.13;;;1.92;;
22186;SDS011;11259;52.146;12.844;2022-08-21T13:38:53;5.15;;;2.08;;
22186;SDS011;11259;52.146;12.844;2022-08-21T13:41:19;5.50;;;2.20;;
22186;SDS011;11259;52.146;12.844;2022-08-21T13:43:48;4.90;;;1.95;;
22186;SDS011;11259;52.146;12.844;2022-08-21T13:46:16;4.63;;;1.80;;
22186;SDS011;11259;52.146;12.844;2022-08-21T13:48:43;8.07;;;2.00;;
22186;SDS011;11259;52.146;12.844;2022-08-21T13:51:08;4.10;;;1.88;;
22186;SDS011;11259;52.146;12.844;2022-08-21T13:53:35;6.00;;;1.90;;
22186;SDS011;11259;52.146;12.844;2022-08-21T13:56:03;5.88;;;1.98;;
22186;SDS011;11259;52.146;12.844;2022-08-21T13:58:30;6.40;;;2.10;;
22186;SDS011;11259;52.146;12.844;2022-08-21T14:01:15;4.60;;;1.90;;
22186;SDS011;11259;52.146;12.844;2022-08-21T14:03:44;3.13;;;1.80;;
22186;SDS011;11259;52.146;12.844;2022-08-21T14:06:11;5.55;;;2.13;;
22186;SDS011;11259;52.146;12.844;2022-08-21T14:08:37;6.93;;;2.30;;
22186;SDS011;11259;52.146;12.844;2022-08-21T14:11:05;6.25;;;2.00;;
22186;SDS011;11259;52.146;12.844;2022-08-21T14:13:36;6.55;;;2.00;;
22186;SDS011;11259;52.146;12.844;2022-08-21T14:16:09;5.07;;;1.88;;
22186;SDS011;11259;52.146;12.844;2022-08-21T14:18:42;5.27;;;2.10;;
22186;SDS011;11259;52.146;12.844;2022-08-21T14:21:09;7.95;;;2.30;;
22186;SDS011;11259;52.146;12.844;2022-08-21T14:23:34;8.35;;;1.95;;
22186;SDS011;11259;52.146;12.844;2022-08-21T14:26:00;4.55;;;1.80;;
22186;SDS011;11259;52.146;12.844;2022-08-21T14:28:30;5.38;;;2.00;;
22186;SDS011;11259;52.146;12.844;2022-08-21T14:30:56;5.47;;;2.25;;
22186;SDS011;11259;52.146;12.844;2022-08-21T14:33:23;4.18;;;1.95;;
22186;SDS011;11259;52.146;12.844;2022-08-21T14:35:51;5.88;;;1.98;;
22186;SDS011;11259;52.146;12.844;2022-08-21T14:38:17;6.40;;;2.35;;